To NAV CANADA Home Page Login to a new session Search on AWWS site Disclaimer Vers la page française équivalente Tips FAQ What's new on the site To the Forecasts and Observations / NOTAM section To "File a Flight Plan" website Publications and other links Update of the User's profile FIC Telephone Numbers My Weather Data Folder Route Weather Data Regional Weather Data Local Weather Data To the Forecasts and Observations / NOTAM section
Request Generated 01/26/2021 at 21:35:22 UTC . Weather information available at that time is displayed.

METAR/TAF

If you find any discrepancies between the coded METAR/TAF and the plain language METAR/TAF please use the coded METAR/TAF. LWIS bulletins are not decoded in plain language.

VANCOUVER INTL/BC    (show WxCam)

METAR CYVR 262100Z 08015G21KT 20SM FEW063 FEW150 FEW220 07/M02 A2957 RMK SC1AS1 1 CI TR SLP015=
METAR
LOCATION
CYVR - VANCOUVER INTL/BC
DATE - TIME
26 JANUARY 2021 - 2100 UTC
WIND
80 TRUE @ 15  KNOTS
GUSTS
21 KNOTS
VISIBILITY
20 STAT.  MILES
RUNWAY VISUAL RANGE
WEATHER
CLOUDINESS
FEW CLOUDS (1/8 - 2/8) 6300  FT
FEW CLOUDS (1/8 - 2/8) 15000  FT
FEW CLOUDS (1/8 - 2/8) 22000  FT
TEMP / DEWPOINT
7 C / -2 C
ALTIMETER
29.57 IN HG
RECENT WEATHER
WIND SHEAR

METAR CYVR 262000Z 09010KT 20SM FEW044 BKN064 BKN150 07/01 A2960 RMK SC1SC7AS1 TR AS TR SLP024=
METAR
LOCATION
CYVR - VANCOUVER INTL/BC
DATE - TIME
26 JANUARY 2021 - 2000 UTC
WIND
90 TRUE @ 10  KNOTS
VISIBILITY
20 STAT.  MILES
RUNWAY VISUAL RANGE
WEATHER
CLOUDINESS
FEW CLOUDS (1/8 - 2/8) 4400  FT
BROKEN CLOUDS (5/8 - 7/8) 6400  FT
BROKEN CLOUDS (5/8 - 7/8) 15000  FT
TEMP / DEWPOINT
7 C / 1 C
ALTIMETER
29.60 IN HG
RECENT WEATHER
WIND SHEAR

METAR CYVR 261900Z 10011KT 20SM BKN059 BKN150 04/02 A2963 RMK SC7AS1 AS TR SLP0 =
METAR
LOCATION
CYVR - VANCOUVER INTL/BC
DATE - TIME
26 JANUARY 2021 - 1900 UTC
WIND
100 TRUE @ 11  KNOTS
VISIBILITY
20 STAT.  MILES
RUNWAY VISUAL RANGE
WEATHER
CLOUDINESS
BROKEN CLOUDS (5/8 - 7/8) 5900  FT
BROKEN CLOUDS (5/8 - 7/8) 15000  FT
TEMP / DEWPOINT
4 C / 2 C
ALTIMETER
29.63 IN HG
RECENT WEATHER
WIND SHEAR

TAF CYVR 262038Z 2621/2724 09010KT P6SM FEW040 SCT060 BECMG 2703/2705 BKN060 BKN100 FM270700 09008KT P6SM BKN060 TEMPO 2707/2712 6SM -RA BR BKN040 FM271200 09008KT P6SM -SHRA SCT030 BKN060 TEMPO 2712/2718 5SM -RA BR BKN030 FM271800 09008KT P6SM -RA SCT015 OVC030 TEMPO 2718/2724 3SM -SHRA BR BKN015 OVC030 RMK NXT FCST BY 270000Z=
TAF
LOCATION

CYVR - VANCOUVER INTL/BC
VALIDITY [UTC]
26 JAN - 2038 to
28 JAN - 0000
 
TIMES
[UTC]
WIND
[DEGREES TRUE]
VISIBILITY
[STAT. MILES]
WEATHER
CLOUDINESS
[FEET AGL]
 
26 JAN - 2100 to
27 JAN - 0700
90 @ 10 KNOTS
6+
NIL
4000 FEW
6000 SCATTERED
BECOMING
27 JAN - 0300 to
27 JAN - 0500
 
 
 
6000 BROKEN
10000 BROKEN
 
27 JAN - 0700 to
27 JAN - 1200
90 @ 8 KNOTS
6+
NIL
6000 BROKEN
TEMPORARY CHANGES
27 JAN - 0700 to
27 JAN - 1200
 
6
LIGHT RAIN
MIST
4000 BROKEN
 
27 JAN - 1200 to
27 JAN - 1800
90 @ 8 KNOTS
6+
LIGHT RAIN SHOWER
3000 SCATTERED
6000 BROKEN
TEMPORARY CHANGES
27 JAN - 1200 to
27 JAN - 1800
 
5
LIGHT RAIN
MIST
3000 BROKEN
 
27 JAN - 1800 to
28 JAN - 0000
90 @ 8 KNOTS
6+
LIGHT RAIN
1500 SCATTERED
3000 OVERCAST
TEMPORARY CHANGES
27 JAN - 1800 to
28 JAN - 0000
 
3
LIGHT RAIN SHOWER
MIST
1500 BROKEN
3000 OVERCAST
REMARKS
THE NEXT FORECAST WILL BE ISSUED BY 0000 UTC ON DAY 27


Your time UTC time
Weather data provided by Environment Canada and NAV CANADA